DLH2FN EDDM-LROP
Flight info
| Callsign | DLH2FN |
|---|---|
| Flight time | 1h 43m |
| Altitude | 37000 |
| Route | KIRDI3S/26L KIRDI DCT BUWOQ DCT OBFEZ DCT STEIN DCT TEGRI DCT LAMIT DCT TOSVI TOSVI2U |
| Aircraft | A320/M-SDE2E3FGIJ1LORWXYZ/HB1 |
Departure
| Time | 2026-05-05 08:51 |
|---|---|
| Airport | Munich Airport (EDDM) |
Arrival
| Time | 2026-05-05 10:35 |
|---|---|
| Airport | Bucharest Henri Coandă International Airport (LROP) |
| Time | Latitude | Longitude | Altitude | Speed | Heading |
|---|---|---|---|---|---|
| 2026-05-05 08:25 | 48.35161 | 11.79363 | 1473 ft | 0 kts | 263° |
| 2026-05-05 08:43 | 48.35162 | 11.79371 | 1470 ft | 2 kts | 263° |
| 2026-05-05 08:44 | 48.35164 | 11.79400 | 1481 ft | 3 kts | 263° |
| 2026-05-05 08:44 | 48.35166 | 11.79430 | 1473 ft | 3 kts | 263° |
| 2026-05-05 08:44 | 48.35169 | 11.79459 | 1473 ft | 3 kts | 254° |
| 2026-05-05 08:44 | 48.35176 | 11.79485 | 1481 ft | 3 kts | 224° |
| 2026-05-05 08:45 | 48.35191 | 11.79499 | 1473 ft | 2 kts | 180° |
| 2026-05-05 08:45 | 48.35201 | 11.79498 | 1482 ft | 2 kts | 173° |
| 2026-05-05 08:45 | 48.35214 | 11.79496 | 1480 ft | 1 kts | 173° |
| 2026-05-05 08:45 | 48.35215 | 11.79495 | 1480 ft | 0 kts | 173° |
| 2026-05-05 08:47 | 48.35213 | 11.79496 | 1480 ft | 2 kts | 173° |
| 2026-05-05 08:47 | 48.35183 | 11.79501 | 1479 ft | 7 kts | 173° |
| 2026-05-05 08:48 | 48.35113 | 11.79513 | 1479 ft | 12 kts | 173° |
| 2026-05-05 08:48 | 48.35023 | 11.79529 | 1473 ft | 14 kts | 173° |
| 2026-05-05 08:48 | 48.34927 | 11.79545 | 1485 ft | 9 kts | 173° |
| 2026-05-05 08:48 | 48.34869 | 11.79555 | 1477 ft | 8 kts | 173° |
| 2026-05-05 08:49 | 48.34863 | 11.79556 | 1477 ft | 0 kts | 173° |
| 2026-05-05 08:49 | 48.34862 | 11.79557 | 1478 ft | 1 kts | 173° |
| 2026-05-05 08:49 | 48.34824 | 11.79560 | 1481 ft | 9 kts | 181° |
| 2026-05-05 08:50 | 48.34734 | 11.79551 | 1477 ft | 17 kts | 175° |
| 2026-05-05 08:50 | 48.34607 | 11.79505 | 1476 ft | 22 kts | 226° |
| 2026-05-05 08:50 | 48.34511 | 11.79314 | 1471 ft | 23 kts | 233° |
| 2026-05-05 08:50 | 48.34413 | 11.79115 | 1481 ft | 24 kts | 233° |
| 2026-05-05 08:51 | 48.34358 | 11.78865 | 1482 ft | 32 kts | 262° |
| 2026-05-05 08:51 | 48.34303 | 11.78150 | 1486 ft | 103 kts | 263° |
| 2026-05-05 08:51 | 48.34197 | 11.76799 | 1491 ft | 155 kts | 262° |
| 2026-05-05 08:51 | 48.34069 | 11.75155 | 2148 ft | 157 kts | 263° |
| 2026-05-05 08:52 | 48.33949 | 11.73520 | 2881 ft | 160 kts | 264° |
| 2026-05-05 08:52 | 48.33635 | 11.71834 | 3256 ft | 180 kts | 232° |
| 2026-05-05 08:52 | 48.32521 | 11.70838 | 3539 ft | 204 kts | 190° |
| 2026-05-05 08:52 | 48.31043 | 11.70662 | 4074 ft | 217 kts | 182° |
| 2026-05-05 08:53 | 48.29524 | 11.70678 | 4911 ft | 220 kts | 173° |
| 2026-05-05 08:53 | 48.28052 | 11.71412 | 5637 ft | 233 kts | 151° |
| 2026-05-05 08:53 | 48.26642 | 11.72869 | 6076 ft | 258 kts | 146° |
| 2026-05-05 08:53 | 48.25127 | 11.74450 | 6737 ft | 270 kts | 146° |
| 2026-05-05 08:54 | 48.23560 | 11.76060 | 7569 ft | 276 kts | 146° |
| 2026-05-05 08:54 | 48.21964 | 11.77688 | 8452 ft | 279 kts | 147° |
| 2026-05-05 08:54 | 48.20381 | 11.79412 | 9343 ft | 284 kts | 138° |
| 2026-05-05 08:54 | 48.19146 | 11.81742 | 10181 ft | 290 kts | 119° |
| 2026-05-05 08:55 | 48.18461 | 11.84629 | 10767 ft | 306 kts | 100° |
| 2026-05-05 08:55 | 48.18417 | 11.87937 | 11050 ft | 330 kts | 89° |
| 2026-05-05 08:55 | 48.18513 | 11.91430 | 11641 ft | 340 kts | 89° |
| 2026-05-05 08:55 | 48.18627 | 11.94993 | 12394 ft | 345 kts | 89° |
| 2026-05-05 08:56 | 48.18743 | 11.98600 | 13153 ft | 349 kts | 89° |
| 2026-05-05 08:56 | 48.18856 | 12.02258 | 13863 ft | 354 kts | 89° |
| 2026-05-05 08:56 | 48.18963 | 12.05962 | 14515 ft | 358 kts | 89° |
| 2026-05-05 08:56 | 48.19065 | 12.09705 | 15167 ft | 362 kts | 89° |
| 2026-05-05 08:57 | 48.19164 | 12.13495 | 15827 ft | 365 kts | 89° |
| 2026-05-05 08:57 | 48.19263 | 12.17316 | 16489 ft | 369 kts | 90° |
| 2026-05-05 08:57 | 48.19364 | 12.21176 | 17144 ft | 373 kts | 90° |
| 2026-05-05 08:57 | 48.19465 | 12.25078 | 17790 ft | 376 kts | 90° |
| 2026-05-05 08:58 | 48.19567 | 12.29014 | 18391 ft | 380 kts | 90° |
| 2026-05-05 08:58 | 48.19666 | 12.32993 | 18948 ft | 383 kts | 90° |
| 2026-05-05 08:58 | 48.19763 | 12.37002 | 19509 ft | 387 kts | 90° |
| 2026-05-05 08:58 | 48.19861 | 12.41048 | 20068 ft | 390 kts | 90° |
| 2026-05-05 08:59 | 48.19960 | 12.45128 | 20614 ft | 393 kts | 90° |
| 2026-05-05 08:59 | 48.20057 | 12.49242 | 21152 ft | 396 kts | 90° |
| 2026-05-05 08:59 | 48.20153 | 12.53388 | 21679 ft | 400 kts | 90° |
| 2026-05-05 08:59 | 48.20249 | 12.57566 | 22199 ft | 403 kts | 90° |
| 2026-05-05 09:00 | 48.20343 | 12.61777 | 22710 ft | 406 kts | 90° |
| 2026-05-05 09:00 | 48.20434 | 12.66021 | 23215 ft | 409 kts | 90° |
| 2026-05-05 09:00 | 48.20523 | 12.70297 | 23657 ft | 412 kts | 90° |
| 2026-05-05 09:00 | 48.20611 | 12.74608 | 24070 ft | 415 kts | 90° |
| 2026-05-05 09:01 | 48.20698 | 12.78952 | 24464 ft | 418 kts | 90° |
| 2026-05-05 09:01 | 48.20783 | 12.83327 | 24864 ft | 421 kts | 90° |
| 2026-05-05 09:01 | 48.20861 | 12.87733 | 25254 ft | 424 kts | 90° |
| 2026-05-05 09:01 | 48.20932 | 12.92169 | 25639 ft | 427 kts | 90° |
| 2026-05-05 09:02 | 48.20998 | 12.96632 | 26024 ft | 430 kts | 90° |
| 2026-05-05 09:02 | 48.21058 | 13.01125 | 26402 ft | 433 kts | 90° |
| 2026-05-05 09:02 | 48.21117 | 13.05649 | 26765 ft | 436 kts | 90° |
| 2026-05-05 09:02 | 48.21178 | 13.10205 | 27127 ft | 439 kts | 90° |
| 2026-05-05 09:03 | 48.21239 | 13.14793 | 27493 ft | 442 kts | 90° |
| 2026-05-05 09:03 | 48.21300 | 13.19411 | 27854 ft | 444 kts | 90° |
| 2026-05-05 09:03 | 48.21360 | 13.24056 | 28207 ft | 447 kts | 90° |
| 2026-05-05 09:03 | 48.21420 | 13.28737 | 28549 ft | 450 kts | 90° |
| 2026-05-05 09:04 | 48.21475 | 13.33443 | 28894 ft | 453 kts | 90° |
| 2026-05-05 09:04 | 48.21526 | 13.38186 | 29230 ft | 456 kts | 90° |
| 2026-05-05 09:04 | 48.21575 | 13.42954 | 29578 ft | 459 kts | 90° |
| 2026-05-05 09:04 | 48.21622 | 13.47748 | 29902 ft | 461 kts | 90° |
| 2026-05-05 09:05 | 48.21669 | 13.52569 | 30187 ft | 464 kts | 90° |
| 2026-05-05 09:05 | 48.21716 | 13.57409 | 30467 ft | 466 kts | 90° |
| 2026-05-05 09:05 | 48.21762 | 13.62273 | 30741 ft | 467 kts | 90° |
| 2026-05-05 09:05 | 48.21808 | 13.67156 | 31024 ft | 469 kts | 90° |
| 2026-05-05 09:06 | 48.21850 | 13.72056 | 31301 ft | 471 kts | 90° |
| 2026-05-05 09:06 | 48.21889 | 13.76965 | 31658 ft | 470 kts | 91° |
| 2026-05-05 09:06 | 48.21925 | 13.81861 | 32046 ft | 469 kts | 91° |
| 2026-05-05 09:06 | 48.21957 | 13.86697 | 32438 ft | 468 kts | 91° |
| 2026-05-05 09:07 | 48.21988 | 13.91571 | 32821 ft | 467 kts | 91° |
| 2026-05-05 09:07 | 48.21821 | 13.96414 | 33189 ft | 464 kts | 99° |
| 2026-05-05 09:07 | 48.21179 | 14.01134 | 33563 ft | 461 kts | 109° |
| 2026-05-05 09:07 | 48.20091 | 14.05625 | 33922 ft | 457 kts | 116° |
| 2026-05-05 09:08 | 48.18811 | 14.09982 | 34271 ft | 456 kts | 116° |
| 2026-05-05 09:08 | 48.17537 | 14.14332 | 34577 ft | 456 kts | 116° |
| 2026-05-05 09:08 | 48.16262 | 14.18680 | 34871 ft | 456 kts | 116° |
| 2026-05-05 09:08 | 48.14990 | 14.23024 | 35149 ft | 455 kts | 116° |
| 2026-05-05 09:09 | 48.13717 | 14.27368 | 35399 ft | 456 kts | 116° |
| 2026-05-05 09:09 | 48.12439 | 14.31712 | 35652 ft | 456 kts | 116° |
| 2026-05-05 09:09 | 48.11157 | 14.36053 | 35909 ft | 456 kts | 116° |
| 2026-05-05 09:09 | 48.09877 | 14.40388 | 36169 ft | 456 kts | 116° |
| 2026-05-05 09:10 | 48.08595 | 14.44721 | 36422 ft | 455 kts | 116° |
| 2026-05-05 09:10 | 48.07309 | 14.49048 | 36661 ft | 455 kts | 117° |
| 2026-05-05 09:10 | 48.06022 | 14.53376 | 36820 ft | 455 kts | 117° |
| 2026-05-05 09:11 | 48.03460 | 14.61988 | 36838 ft | 453 kts | 116° |
| 2026-05-05 09:11 | 48.00900 | 14.70578 | 36843 ft | 453 kts | 116° |
| 2026-05-05 09:12 | 47.98331 | 14.79155 | 36847 ft | 453 kts | 116° |
| 2026-05-05 09:12 | 47.95753 | 14.87716 | 36846 ft | 452 kts | 116° |
| 2026-05-05 09:13 | 47.93169 | 14.96278 | 36851 ft | 452 kts | 117° |
| 2026-05-05 09:13 | 47.90577 | 15.04825 | 36846 ft | 452 kts | 116° |
| 2026-05-05 09:14 | 47.87982 | 15.13347 | 36865 ft | 452 kts | 116° |
| 2026-05-05 09:14 | 47.85391 | 15.21859 | 36872 ft | 451 kts | 116° |
| 2026-05-05 09:15 | 47.82790 | 15.30358 | 36870 ft | 451 kts | 117° |
| 2026-05-05 09:15 | 47.80190 | 15.38847 | 36862 ft | 451 kts | 117° |
| 2026-05-05 09:16 | 47.77614 | 15.47355 | 36859 ft | 451 kts | 116° |
| 2026-05-05 09:16 | 47.75046 | 15.55877 | 36870 ft | 452 kts | 116° |
| 2026-05-05 09:17 | 47.72467 | 15.64399 | 36874 ft | 452 kts | 117° |
| 2026-05-05 09:17 | 47.69871 | 15.72901 | 36868 ft | 452 kts | 117° |
| 2026-05-05 09:18 | 47.67284 | 15.81341 | 36876 ft | 452 kts | 117° |
| 2026-05-05 09:18 | 47.64675 | 15.89820 | 36885 ft | 452 kts | 117° |
| 2026-05-05 09:19 | 47.62060 | 15.98284 | 36882 ft | 452 kts | 117° |
| 2026-05-05 09:19 | 47.59440 | 16.06748 | 36889 ft | 452 kts | 117° |
| 2026-05-05 09:20 | 47.56821 | 16.15192 | 36881 ft | 452 kts | 117° |
| 2026-05-05 09:20 | 47.54185 | 16.23642 | 36882 ft | 452 kts | 117° |
| 2026-05-05 09:21 | 47.51544 | 16.32086 | 36885 ft | 452 kts | 117° |
| 2026-05-05 09:21 | 47.48893 | 16.40529 | 36895 ft | 452 kts | 117° |
| 2026-05-05 09:22 | 47.46235 | 16.48964 | 36897 ft | 453 kts | 117° |
| 2026-05-05 09:22 | 47.43576 | 16.57388 | 36902 ft | 452 kts | 117° |
| 2026-05-05 09:23 | 47.41661 | 16.64658 | 36906 ft | 454 kts | 111° |
| 2026-05-05 09:23 | 47.39619 | 16.73412 | 36911 ft | 454 kts | 111° |
| 2026-05-05 09:24 | 47.37547 | 16.82207 | 36911 ft | 454 kts | 111° |
| 2026-05-05 09:24 | 47.35466 | 16.91002 | 36915 ft | 454 kts | 111° |
| 2026-05-05 09:25 | 47.33376 | 16.99782 | 36925 ft | 454 kts | 111° |
| 2026-05-05 09:25 | 47.31281 | 17.08550 | 36930 ft | 453 kts | 111° |
| 2026-05-05 09:26 | 47.29188 | 17.17308 | 36940 ft | 453 kts | 111° |
| 2026-05-05 09:26 | 47.27084 | 17.26060 | 36939 ft | 453 kts | 111° |
| 2026-05-05 09:27 | 47.24972 | 17.34803 | 36939 ft | 453 kts | 111° |
| 2026-05-05 09:27 | 47.22854 | 17.43541 | 36943 ft | 453 kts | 111° |
| 2026-05-05 09:28 | 47.20728 | 17.52269 | 36945 ft | 453 kts | 111° |
| 2026-05-05 09:28 | 47.18600 | 17.60998 | 36937 ft | 453 kts | 111° |
| 2026-05-05 09:29 | 47.16467 | 17.69727 | 36941 ft | 454 kts | 111° |
| 2026-05-05 09:29 | 47.14319 | 17.78460 | 36949 ft | 455 kts | 111° |
| 2026-05-05 09:30 | 47.12164 | 17.87190 | 36962 ft | 455 kts | 112° |
| 2026-05-05 09:30 | 47.09993 | 17.95912 | 36969 ft | 455 kts | 111° |
| 2026-05-05 09:31 | 47.07821 | 18.04628 | 36991 ft | 455 kts | 111° |
| 2026-05-05 09:31 | 47.05649 | 18.13339 | 36992 ft | 454 kts | 111° |
| 2026-05-05 09:32 | 47.03472 | 18.22028 | 36996 ft | 454 kts | 111° |
| 2026-05-05 09:32 | 47.01279 | 18.30707 | 37001 ft | 454 kts | 111° |
| 2026-05-05 09:33 | 46.99086 | 18.39376 | 37001 ft | 454 kts | 111° |
| 2026-05-05 09:33 | 46.96886 | 18.48026 | 37007 ft | 453 kts | 111° |
| 2026-05-05 09:34 | 46.94692 | 18.56659 | 37011 ft | 452 kts | 111° |
| 2026-05-05 09:34 | 46.92488 | 18.65273 | 37008 ft | 452 kts | 111° |
| 2026-05-05 09:35 | 46.90282 | 18.73875 | 37007 ft | 452 kts | 111° |
| 2026-05-05 09:35 | 46.86960 | 18.86760 | 37009 ft | 452 kts | 111° |
| 2026-05-05 09:36 | 46.84737 | 18.95344 | 37006 ft | 452 kts | 111° |
| 2026-05-05 09:36 | 46.82508 | 19.03917 | 37007 ft | 452 kts | 111° |
| 2026-05-05 09:37 | 46.80274 | 19.12489 | 37011 ft | 452 kts | 111° |
| 2026-05-05 09:37 | 46.78025 | 19.21048 | 37014 ft | 452 kts | 111° |
| 2026-05-05 09:38 | 46.75770 | 19.29598 | 37015 ft | 452 kts | 111° |
| 2026-05-05 09:38 | 46.73526 | 19.38158 | 37031 ft | 452 kts | 111° |
| 2026-05-05 09:39 | 46.71266 | 19.46701 | 37026 ft | 452 kts | 111° |
| 2026-05-05 09:39 | 46.68995 | 19.55232 | 37041 ft | 452 kts | 111° |
| 2026-05-05 09:40 | 46.66718 | 19.63756 | 37035 ft | 452 kts | 111° |
| 2026-05-05 09:40 | 46.64440 | 19.72274 | 37040 ft | 451 kts | 111° |
| 2026-05-05 09:41 | 46.62155 | 19.80783 | 37046 ft | 451 kts | 111° |
| 2026-05-05 09:41 | 46.59862 | 19.89285 | 37046 ft | 451 kts | 111° |
| 2026-05-05 09:42 | 46.57564 | 19.97775 | 37043 ft | 451 kts | 111° |
| 2026-05-05 09:42 | 46.55254 | 20.06256 | 37046 ft | 451 kts | 111° |
| 2026-05-05 09:43 | 46.52943 | 20.14729 | 37042 ft | 451 kts | 111° |
| 2026-05-05 09:43 | 46.50629 | 20.23205 | 37043 ft | 451 kts | 111° |
| 2026-05-05 09:44 | 46.48309 | 20.31673 | 37052 ft | 451 kts | 111° |
| 2026-05-05 09:44 | 46.45980 | 20.40124 | 37045 ft | 451 kts | 111° |
| 2026-05-05 09:45 | 46.43639 | 20.48571 | 37051 ft | 451 kts | 111° |
| 2026-05-05 09:45 | 46.41311 | 20.56955 | 37036 ft | 451 kts | 111° |
| 2026-05-05 09:46 | 46.38948 | 20.65444 | 37042 ft | 451 kts | 111° |
| 2026-05-05 09:46 | 46.36597 | 20.73866 | 37042 ft | 451 kts | 111° |
| 2026-05-05 09:47 | 46.34242 | 20.82286 | 37042 ft | 451 kts | 111° |
| 2026-05-05 09:47 | 46.31886 | 20.90632 | 37052 ft | 451 kts | 111° |
| 2026-05-05 09:48 | 46.29508 | 20.99032 | 37056 ft | 451 kts | 111° |
| 2026-05-05 09:48 | 46.27126 | 21.07427 | 37059 ft | 451 kts | 112° |
| 2026-05-05 09:49 | 46.23936 | 21.15220 | 37061 ft | 452 kts | 125° |
| 2026-05-05 09:49 | 46.20292 | 21.22616 | 37057 ft | 452 kts | 124° |
| 2026-05-05 09:50 | 46.16646 | 21.30023 | 37053 ft | 453 kts | 124° |
| 2026-05-05 09:50 | 46.12990 | 21.37428 | 37053 ft | 453 kts | 125° |
| 2026-05-05 09:51 | 46.09313 | 21.44841 | 37048 ft | 454 kts | 125° |
| 2026-05-05 09:51 | 46.05639 | 21.52228 | 37058 ft | 453 kts | 125° |
| 2026-05-05 09:52 | 46.01959 | 21.59599 | 37043 ft | 454 kts | 124° |
| 2026-05-05 09:52 | 45.98274 | 21.66980 | 37041 ft | 454 kts | 124° |
| 2026-05-05 09:53 | 45.94585 | 21.74356 | 37038 ft | 455 kts | 125° |
| 2026-05-05 09:53 | 45.90887 | 21.81729 | 37049 ft | 455 kts | 125° |
| 2026-05-05 09:54 | 45.87183 | 21.89093 | 37047 ft | 455 kts | 125° |
| 2026-05-05 09:54 | 45.83469 | 21.96435 | 37046 ft | 455 kts | 125° |
| 2026-05-05 09:55 | 45.79752 | 22.03778 | 37044 ft | 455 kts | 125° |
| 2026-05-05 09:55 | 45.76034 | 22.11119 | 37044 ft | 455 kts | 125° |
| 2026-05-05 09:56 | 45.72312 | 22.18448 | 37053 ft | 455 kts | 125° |
| 2026-05-05 09:56 | 45.68592 | 22.25752 | 37053 ft | 454 kts | 125° |
| 2026-05-05 09:57 | 45.64861 | 22.33032 | 37055 ft | 454 kts | 125° |
| 2026-05-05 09:57 | 45.61127 | 22.40295 | 37053 ft | 453 kts | 125° |
| 2026-05-05 09:58 | 45.57399 | 22.47550 | 37064 ft | 453 kts | 125° |
| 2026-05-05 09:58 | 45.53675 | 22.54793 | 37065 ft | 452 kts | 125° |
| 2026-05-05 09:59 | 45.49950 | 22.62013 | 37059 ft | 452 kts | 125° |
| 2026-05-05 09:59 | 45.46213 | 22.69221 | 37059 ft | 452 kts | 125° |
| 2026-05-05 10:00 | 45.42473 | 22.76421 | 37055 ft | 452 kts | 125° |
| 2026-05-05 10:00 | 45.38724 | 22.83621 | 37055 ft | 453 kts | 125° |
| 2026-05-05 10:01 | 45.34991 | 22.90767 | 37057 ft | 453 kts | 125° |
| 2026-05-05 10:01 | 45.31226 | 22.97958 | 37060 ft | 454 kts | 125° |
| 2026-05-05 10:02 | 45.27459 | 23.05150 | 37070 ft | 454 kts | 125° |
| 2026-05-05 10:02 | 45.23688 | 23.12322 | 37066 ft | 453 kts | 125° |
| 2026-05-05 10:03 | 45.19910 | 23.19485 | 37065 ft | 454 kts | 125° |
| 2026-05-05 10:03 | 45.16128 | 23.26647 | 37064 ft | 454 kts | 125° |
| 2026-05-05 10:04 | 45.12350 | 23.33807 | 37055 ft | 454 kts | 122° |
| 2026-05-05 10:04 | 45.09597 | 23.41750 | 37050 ft | 448 kts | 104° |
| 2026-05-05 10:05 | 45.07995 | 23.50257 | 37047 ft | 447 kts | 102° |
| 2026-05-05 10:05 | 45.06392 | 23.58768 | 37048 ft | 448 kts | 102° |
| 2026-05-05 10:06 | 45.05050 | 23.65841 | 37057 ft | 448 kts | 102° |
| 2026-05-05 10:06 | 45.03425 | 23.74350 | 37043 ft | 449 kts | 102° |
| 2026-05-05 10:07 | 45.01790 | 23.82880 | 37035 ft | 450 kts | 102° |
| 2026-05-05 10:07 | 45.00970 | 23.87152 | 36528 ft | 453 kts | 102° |
| 2026-05-05 10:07 | 45.00135 | 23.91512 | 35304 ft | 466 kts | 102° |
| 2026-05-05 10:08 | 44.99285 | 23.95948 | 34468 ft | 469 kts | 102° |
| 2026-05-05 10:08 | 44.98430 | 24.00387 | 33806 ft | 467 kts | 102° |
| 2026-05-05 10:08 | 44.97577 | 24.04794 | 33168 ft | 463 kts | 102° |
| 2026-05-05 10:08 | 44.96729 | 24.09157 | 32567 ft | 458 kts | 102° |
| 2026-05-05 10:09 | 44.95889 | 24.13473 | 31975 ft | 453 kts | 102° |
| 2026-05-05 10:09 | 44.95057 | 24.17743 | 31409 ft | 449 kts | 102° |
| 2026-05-05 10:09 | 44.94232 | 24.21961 | 30836 ft | 444 kts | 102° |
| 2026-05-05 10:09 | 44.93415 | 24.26142 | 30292 ft | 440 kts | 102° |
| 2026-05-05 10:10 | 44.92606 | 24.30282 | 29703 ft | 436 kts | 102° |
| 2026-05-05 10:10 | 44.91802 | 24.34379 | 29122 ft | 431 kts | 102° |
| 2026-05-05 10:10 | 44.91003 | 24.38429 | 28544 ft | 426 kts | 102° |
| 2026-05-05 10:10 | 44.90210 | 24.42432 | 27977 ft | 421 kts | 102° |
| 2026-05-05 10:11 | 44.89425 | 24.46391 | 27412 ft | 417 kts | 102° |
| 2026-05-05 10:11 | 44.88646 | 24.50304 | 26853 ft | 413 kts | 102° |
| 2026-05-05 10:11 | 44.87872 | 24.54187 | 26301 ft | 409 kts | 102° |
| 2026-05-05 10:11 | 44.87110 | 24.58023 | 25754 ft | 405 kts | 102° |
| 2026-05-05 10:12 | 44.86356 | 24.61828 | 25228 ft | 401 kts | 102° |
| 2026-05-05 10:12 | 44.85610 | 24.65594 | 24702 ft | 396 kts | 102° |
| 2026-05-05 10:12 | 44.84870 | 24.69306 | 23988 ft | 391 kts | 103° |
| 2026-05-05 10:12 | 44.84136 | 24.72974 | 23225 ft | 387 kts | 103° |
| 2026-05-05 10:13 | 44.83408 | 24.76610 | 22604 ft | 384 kts | 102° |
| 2026-05-05 10:13 | 44.82684 | 24.80204 | 22112 ft | 379 kts | 103° |
| 2026-05-05 10:13 | 44.81965 | 24.83753 | 21605 ft | 376 kts | 102° |
| 2026-05-05 10:13 | 44.81251 | 24.87275 | 21114 ft | 372 kts | 102° |
| 2026-05-05 10:14 | 44.80545 | 24.90767 | 20623 ft | 369 kts | 102° |
| 2026-05-05 10:14 | 44.79847 | 24.94224 | 20170 ft | 365 kts | 102° |
| 2026-05-05 10:14 | 44.79153 | 24.97656 | 19683 ft | 363 kts | 102° |
| 2026-05-05 10:14 | 44.78464 | 25.01056 | 19243 ft | 360 kts | 102° |
| 2026-05-05 10:15 | 44.77777 | 25.04436 | 18769 ft | 358 kts | 102° |
| 2026-05-05 10:15 | 44.77091 | 25.07791 | 18361 ft | 355 kts | 102° |
| 2026-05-05 10:15 | 44.76410 | 25.11114 | 17880 ft | 352 kts | 102° |
| 2026-05-05 10:15 | 44.75734 | 25.14417 | 17466 ft | 348 kts | 102° |
| 2026-05-05 10:16 | 44.75090 | 25.17685 | 16945 ft | 346 kts | 100° |
| 2026-05-05 10:16 | 44.74545 | 25.20965 | 16522 ft | 342 kts | 98° |
| 2026-05-05 10:16 | 44.74064 | 25.24205 | 16179 ft | 336 kts | 97° |
| 2026-05-05 10:16 | 44.73609 | 25.27405 | 15850 ft | 331 kts | 97° |
| 2026-05-05 10:17 | 44.73161 | 25.30549 | 15520 ft | 326 kts | 97° |
| 2026-05-05 10:17 | 44.72708 | 25.33656 | 15192 ft | 322 kts | 98° |
| 2026-05-05 10:17 | 44.72250 | 25.36723 | 14871 ft | 319 kts | 98° |
| 2026-05-05 10:17 | 44.71791 | 25.39755 | 14560 ft | 316 kts | 98° |
| 2026-05-05 10:18 | 44.71332 | 25.42757 | 14249 ft | 313 kts | 98° |
| 2026-05-05 10:18 | 44.70877 | 25.45732 | 13934 ft | 310 kts | 98° |
| 2026-05-05 10:18 | 44.70425 | 25.48679 | 13599 ft | 308 kts | 98° |
| 2026-05-05 10:18 | 44.69973 | 25.51607 | 13289 ft | 305 kts | 98° |
| 2026-05-05 10:19 | 44.69521 | 25.54514 | 12986 ft | 304 kts | 98° |
| 2026-05-05 10:19 | 44.69073 | 25.57406 | 12683 ft | 302 kts | 98° |
| 2026-05-05 10:19 | 44.68628 | 25.60283 | 12377 ft | 300 kts | 98° |
| 2026-05-05 10:19 | 44.68183 | 25.63142 | 12077 ft | 299 kts | 98° |
| 2026-05-05 10:20 | 44.67739 | 25.65983 | 11779 ft | 297 kts | 98° |
| 2026-05-05 10:20 | 44.67298 | 25.68813 | 11484 ft | 296 kts | 98° |
| 2026-05-05 10:20 | 44.66858 | 25.71629 | 11184 ft | 294 kts | 99° |
| 2026-05-05 10:20 | 44.66418 | 25.74430 | 10893 ft | 293 kts | 99° |
| 2026-05-05 10:21 | 44.65978 | 25.77215 | 10614 ft | 290 kts | 99° |
| 2026-05-05 10:21 | 44.65546 | 25.79947 | 10393 ft | 284 kts | 98° |
| 2026-05-05 10:21 | 44.65118 | 25.82647 | 10052 ft | 282 kts | 98° |
| 2026-05-05 10:21 | 44.64697 | 25.85323 | 9730 ft | 279 kts | 97° |
| 2026-05-05 10:22 | 44.64497 | 25.87986 | 9439 ft | 271 kts | 84° |
| 2026-05-05 10:22 | 44.64672 | 25.90601 | 9153 ft | 268 kts | 79° |
| 2026-05-05 10:22 | 44.64881 | 25.93199 | 8867 ft | 268 kts | 80° |
| 2026-05-05 10:22 | 44.65084 | 25.95794 | 8584 ft | 267 kts | 80° |
| 2026-05-05 10:23 | 44.65282 | 25.98387 | 8303 ft | 267 kts | 80° |
| 2026-05-05 10:23 | 44.65479 | 26.00976 | 8020 ft | 266 kts | 80° |
| 2026-05-05 10:23 | 44.65676 | 26.03559 | 7743 ft | 266 kts | 80° |
| 2026-05-05 10:23 | 44.65872 | 26.06135 | 7476 ft | 265 kts | 80° |
| 2026-05-05 10:24 | 44.66068 | 26.08710 | 7204 ft | 265 kts | 80° |
| 2026-05-05 10:24 | 44.66263 | 26.11283 | 6934 ft | 265 kts | 80° |
| 2026-05-05 10:24 | 44.66458 | 26.13853 | 6667 ft | 264 kts | 81° |
| 2026-05-05 10:24 | 44.66650 | 26.16418 | 6401 ft | 264 kts | 81° |
| 2026-05-05 10:25 | 44.66840 | 26.18981 | 6118 ft | 264 kts | 81° |
| 2026-05-05 10:25 | 44.67028 | 26.21539 | 5848 ft | 263 kts | 81° |
| 2026-05-05 10:25 | 44.67217 | 26.24092 | 5566 ft | 263 kts | 81° |
| 2026-05-05 10:25 | 44.67407 | 26.26645 | 5287 ft | 263 kts | 81° |
| 2026-05-05 10:26 | 44.67597 | 26.29190 | 5012 ft | 262 kts | 81° |
| 2026-05-05 10:26 | 44.67784 | 26.31741 | 4746 ft | 263 kts | 81° |
| 2026-05-05 10:26 | 44.67968 | 26.34274 | 4460 ft | 257 kts | 81° |
| 2026-05-05 10:26 | 44.68149 | 26.36739 | 4218 ft | 249 kts | 82° |
| 2026-05-05 10:27 | 44.68326 | 26.39118 | 4078 ft | 240 kts | 82° |
| 2026-05-05 10:27 | 44.68500 | 26.41434 | 4001 ft | 236 kts | 82° |
| 2026-05-05 10:27 | 44.68669 | 26.43686 | 3998 ft | 230 kts | 83° |
| 2026-05-05 10:27 | 44.68425 | 26.45887 | 3998 ft | 233 kts | 114° |
| 2026-05-05 10:28 | 44.67378 | 26.47564 | 4005 ft | 227 kts | 147° |
| 2026-05-05 10:28 | 44.65915 | 26.48191 | 4016 ft | 217 kts | 172° |
| 2026-05-05 10:28 | 44.64425 | 26.48326 | 4003 ft | 213 kts | 180° |
| 2026-05-05 10:28 | 44.63025 | 26.47746 | 4007 ft | 209 kts | 210° |
| 2026-05-05 10:29 | 44.61851 | 26.46675 | 4026 ft | 196 kts | 216° |
| 2026-05-05 10:29 | 44.60752 | 26.45576 | 3998 ft | 193 kts | 216° |
| 2026-05-05 10:29 | 44.59741 | 26.44360 | 3990 ft | 191 kts | 233° |
| 2026-05-05 10:29 | 44.59119 | 26.42737 | 3999 ft | 190 kts | 256° |
| 2026-05-05 10:30 | 44.58922 | 26.40928 | 3877 ft | 188 kts | 267° |
| 2026-05-05 10:30 | 44.58794 | 26.39101 | 3664 ft | 188 kts | 267° |
| 2026-05-05 10:30 | 44.58664 | 26.37278 | 3455 ft | 188 kts | 266° |
| 2026-05-05 10:30 | 44.58531 | 26.35453 | 3236 ft | 188 kts | 265° |
| 2026-05-05 10:31 | 44.58399 | 26.33641 | 3015 ft | 186 kts | 265° |
| 2026-05-05 10:31 | 44.58267 | 26.31843 | 2789 ft | 185 kts | 264° |
| 2026-05-05 10:31 | 44.58135 | 26.30048 | 2568 ft | 185 kts | 263° |
| 2026-05-05 10:31 | 44.58006 | 26.28292 | 2367 ft | 180 kts | 263° |
| 2026-05-05 10:32 | 44.57878 | 26.26558 | 2135 ft | 178 kts | 263° |
| 2026-05-05 10:32 | 44.57750 | 26.24828 | 1928 ft | 178 kts | 263° |
| 2026-05-05 10:32 | 44.57625 | 26.23143 | 1719 ft | 170 kts | 263° |
| 2026-05-05 10:32 | 44.57509 | 26.21570 | 1525 ft | 155 kts | 263° |
| 2026-05-05 10:33 | 44.57399 | 26.20104 | 1335 ft | 145 kts | 263° |
| 2026-05-05 10:33 | 44.57296 | 26.18715 | 1167 ft | 142 kts | 262° |
| 2026-05-05 10:33 | 44.57193 | 26.17349 | 1008 ft | 140 kts | 262° |
| 2026-05-05 10:33 | 44.57092 | 26.15998 | 835 ft | 139 kts | 263° |
| 2026-05-05 10:34 | 44.56991 | 26.14650 | 678 ft | 139 kts | 263° |
| 2026-05-05 10:34 | 44.56889 | 26.13307 | 510 ft | 138 kts | 264° |
| 2026-05-05 10:34 | 44.56790 | 26.11969 | 360 ft | 138 kts | 264° |
| 2026-05-05 10:34 | 44.56697 | 26.10740 | 321 ft | 105 kts | 265° |
| 2026-05-05 10:35 | 44.56640 | 26.09964 | 322 ft | 59 kts | 264° |
| 2026-05-05 10:35 | 44.56601 | 26.09450 | 319 ft | 49 kts | 264° |
| 2026-05-05 10:35 | 44.56568 | 26.09019 | 320 ft | 27 kts | 263° |
| 2026-05-05 10:35 | 44.56570 | 26.08759 | 320 ft | 26 kts | 287° |
| 2026-05-05 10:36 | 44.56687 | 26.08583 | 321 ft | 25 kts | 347° |
| 2026-05-05 10:36 | 44.56863 | 26.08557 | 320 ft | 25 kts | 354° |
| 2026-05-05 10:36 | 44.57040 | 26.08532 | 321 ft | 26 kts | 354° |
| 2026-05-05 10:36 | 44.57203 | 26.08509 | 321 ft | 15 kts | 352° |
| 2026-05-05 10:37 | 44.57229 | 26.08388 | 321 ft | 14 kts | 263° |
| 2026-05-05 10:37 | 44.57210 | 26.08264 | 321 ft | 13 kts | 258° |
| 2026-05-05 10:37 | 44.57201 | 26.08146 | 321 ft | 12 kts | 264° |
| 2026-05-05 10:37 | 44.57192 | 26.08040 | 319 ft | 10 kts | 263° |
| 2026-05-05 10:38 | 44.57185 | 26.07945 | 321 ft | 9 kts | 264° |
| 2026-05-05 10:38 | 44.57159 | 26.07888 | 321 ft | 7 kts | 184° |
| 2026-05-05 10:38 | 44.57119 | 26.07883 | 321 ft | 0 kts | 175° |
| 2026-05-05 10:38 | 44.57118 | 26.07883 | 321 ft | 0 kts | 174° |